createdAt,value
2023-07-29T00:00:25.455Z,92906.81
2023-07-29T00:01:57.134Z,92914.59
2023-07-29T00:03:31.376Z,92912.28
2023-07-29T00:05:03.065Z,92912.22
2023-07-29T00:06:35.410Z,92919.91
2023-07-29T00:08:07.385Z,92915.22
2023-07-29T00:09:39.906Z,92912.34
2023-07-29T00:11:11.496Z,92913.06
2023-07-29T00:12:43.614Z,92912.59
2023-07-29T00:14:15.699Z,92910.16
2023-07-29T00:15:47.295Z,92911.25
2023-07-29T00:17:19.129Z,92910.84
2023-07-29T00:18:51.096Z,92908.03
2023-07-29T00:20:22.953Z,92906.53
2023-07-29T00:21:54.644Z,92901.38
2023-07-29T00:23:26.464Z,92897.09
2023-07-29T00:25:01.205Z,92895.16
2023-07-29T00:26:33.512Z,92892.44
2023-07-29T00:28:05.780Z,92891.25
2023-07-29T00:29:37.518Z,92889.31
2023-07-29T00:31:09.331Z,92894.03
2023-07-29T00:32:41.293Z,92894.84
2023-07-29T00:34:18.419Z,92891.75
2023-07-29T00:35:50.272Z,92894.41
2023-07-29T00:37:22.548Z,92888.13
2023-07-29T00:38:55.757Z,92891.63
2023-07-29T00:40:27.520Z,92892.34
2023-07-29T00:41:59.336Z,92886.53
2023-07-29T00:43:31.417Z,92890.78
2023-07-29T00:45:03.147Z,92891.06
2023-07-29T00:46:35.966Z,92892.22
2023-07-29T00:48:09.301Z,92887.94
2023-07-29T00:49:41.989Z,92889.44
2023-07-29T00:51:13.695Z,92890.84
2023-07-29T00:52:45.223Z,92891.19
2023-07-29T00:54:16.900Z,92888.00
2023-07-29T00:55:49.369Z,92891.38
2023-07-29T00:57:21.528Z,92895.25
2023-07-29T00:59:00.095Z,92890.94
2023-07-29T01:00:32.238Z,92889.72
2023-07-29T01:02:04.232Z,92882.00
2023-07-29T01:03:36.723Z,92882.00
2023-07-29T01:05:09.495Z,92879.97
2023-07-29T01:06:46.792Z,92883.91
2023-07-29T01:08:37.803Z,92873.72
2023-07-29T01:10:27.997Z,92885.16
2023-07-29T01:12:03.676Z,92883.22
2023-07-29T01:13:52.305Z,92880.88
2023-07-29T01:15:26.099Z,92882.69
2023-07-29T01:16:58.885Z,92879.50
2023-07-29T01:18:31.894Z,92868.59
2023-07-29T01:20:08.516Z,92874.41
2023-07-29T01:21:40.138Z,92869.31
2023-07-29T01:23:11.888Z,92866.16
2023-07-29T01:24:43.913Z,92872.38
2023-07-29T01:26:15.585Z,92877.75
2023-07-29T01:27:48.020Z,92877.72
2023-07-29T01:29:19.617Z,92876.13
2023-07-29T01:30:52.074Z,92875.34
2023-07-29T01:32:29.665Z,92878.41
2023-07-29T01:34:09.021Z,92883.44
2023-07-29T01:35:42.992Z,92876.72
2023-07-29T01:37:16.171Z,92880.84
2023-07-29T01:38:48.321Z,92878.50
2023-07-29T01:40:20.353Z,92868.75
2023-07-29T01:41:52.177Z,92878.00
2023-07-29T01:43:26.543Z,92874.13
2023-07-29T01:44:58.466Z,92868.69
2023-07-29T01:46:30.126Z,92875.19
2023-07-29T01:48:01.990Z,92871.69
2023-07-29T01:49:33.624Z,92868.16
2023-07-29T01:51:05.889Z,92867.72
2023-07-29T01:52:37.401Z,92869.63
2023-07-29T01:54:09.021Z,92874.63
2023-07-29T01:55:40.716Z,92867.88
2023-07-29T01:57:12.592Z,92875.19
2023-07-29T01:58:44.330Z,92871.91
2023-07-29T02:00:16.415Z,92882.31
2023-07-29T02:01:48.108Z,92872.81
2023-07-29T02:03:20.138Z,92887.88
2023-07-29T02:04:53.672Z,92887.00
2023-07-29T02:06:25.414Z,92891.94
2023-07-29T02:07:57.949Z,92887.97
2023-07-29T02:09:30.517Z,92885.53
2023-07-29T02:11:02.164Z,92898.28
2023-07-29T02:12:33.916Z,92895.81
2023-07-29T02:14:05.885Z,92894.06
2023-07-29T02:15:38.025Z,92889.22
2023-07-29T02:17:10.363Z,92895.41
2023-07-29T02:18:42.450Z,92893.72
2023-07-29T02:20:14.289Z,92895.16
2023-07-29T02:21:46.287Z,92891.63
2023-07-29T02:23:20.749Z,92897.41
2023-07-29T02:24:52.380Z,92896.53
2023-07-29T02:26:24.131Z,92889.16
2023-07-29T02:27:55.797Z,92892.16
2023-07-29T02:29:27.624Z,92893.97
2023-07-29T02:31:14.141Z,92894.88
2023-07-29T02:32:45.997Z,92887.88
2023-07-29T02:34:17.708Z,92888.22
2023-07-29T02:35:49.504Z,92893.31
2023-07-29T02:37:21.716Z,92895.56
2023-07-29T02:38:53.288Z,92893.97
2023-07-29T02:40:28.075Z,92901.31
2023-07-29T02:41:59.882Z,92897.03
2023-07-29T02:43:31.566Z,92905.53
2023-07-29T02:45:03.226Z,92902.38
2023-07-29T02:46:35.196Z,92899.66
2023-07-29T02:48:07.404Z,92897.31
2023-07-29T02:49:39.187Z,92902.28
2023-07-29T02:51:10.847Z,92904.56
2023-07-29T02:52:42.876Z,92904.91
2023-07-29T02:54:14.559Z,92902.88
2023-07-29T02:55:46.166Z,92912.88
2023-07-29T02:57:18.746Z,92910.97
2023-07-29T02:58:53.153Z,92902.03
2023-07-29T03:00:24.872Z,92901.47
2023-07-29T03:01:56.546Z,92903.69
2023-07-29T03:03:28.256Z,92906.03
2023-07-29T03:05:00.206Z,92899.81
2023-07-29T03:06:31.882Z,92908.75
2023-07-29T03:08:03.578Z,92911.09
2023-07-29T03:09:35.271Z,92907.97
2023-07-29T03:11:10.383Z,92909.19
2023-07-29T03:12:42.020Z,92911.22
2023-07-29T03:14:14.105Z,92904.53
2023-07-29T03:15:45.888Z,92898.75
2023-07-29T03:17:17.512Z,92901.03
2023-07-29T03:18:49.328Z,92899.44
2023-07-29T03:20:21.318Z,92903.41
2023-07-29T03:21:52.917Z,92912.00
2023-07-29T03:23:25.042Z,92901.13
2023-07-29T03:24:56.559Z,92901.91
2023-07-29T03:26:28.157Z,92902.38
2023-07-29T03:28:00.200Z,92896.59
2023-07-29T03:29:31.902Z,92898.97
2023-07-29T03:31:04.220Z,92898.16
2023-07-29T03:32:35.876Z,92885.78
2023-07-29T03:34:07.615Z,92896.50
2023-07-29T03:35:39.271Z,92894.47
2023-07-29T03:37:10.914Z,92889.91
2023-07-29T03:38:42.927Z,92891.16
2023-07-29T03:40:14.688Z,92888.84
2023-07-29T03:41:46.436Z,92890.88
2023-07-29T03:43:18.394Z,92899.56
2023-07-29T03:44:50.130Z,92896.41
2023-07-29T03:46:22.986Z,92899.47
2023-07-29T03:47:54.887Z,92897.19
2023-07-29T03:49:26.571Z,92902.97
2023-07-29T03:50:58.190Z,92900.97
2023-07-29T03:52:29.803Z,92902.09
2023-07-29T03:54:01.575Z,92908.25
2023-07-29T03:55:33.487Z,92906.22
2023-07-29T03:57:05.242Z,92906.47
2023-07-29T03:58:36.816Z,92904.09
2023-07-29T04:00:11.232Z,92913.56
2023-07-29T04:01:43.399Z,92905.94
2023-07-29T04:03:15.457Z,92917.72
2023-07-29T04:04:49.496Z,92909.66
2023-07-29T04:06:21.954Z,92909.38
2023-07-29T04:07:55.089Z,92916.53
2023-07-29T04:09:26.796Z,92916.69
2023-07-29T04:10:58.583Z,92914.16
2023-07-29T04:12:30.273Z,92922.16
2023-07-29T04:14:02.086Z,92923.53
2023-07-29T04:15:34.177Z,92920.28
2023-07-29T04:17:05.956Z,92919.75
2023-07-29T04:18:37.874Z,92914.56
2023-07-29T04:20:09.787Z,92914.09
2023-07-29T04:21:41.490Z,92911.59
2023-07-29T04:23:13.155Z,92914.59
2023-07-29T04:24:45.275Z,92919.47
2023-07-29T04:26:16.916Z,92921.63
2023-07-29T04:27:49.853Z,92923.38
2023-07-29T04:29:21.841Z,92923.44
2023-07-29T04:30:54.052Z,92920.50
2023-07-29T04:32:26.126Z,92921.13
2023-07-29T04:33:57.944Z,92922.06
2023-07-29T04:35:29.641Z,92918.31
2023-07-29T04:37:02.079Z,92921.50
2023-07-29T04:38:34.515Z,92918.41
2023-07-29T04:40:06.601Z,92914.94
2023-07-29T04:41:38.792Z,92915.03
2023-07-29T04:43:10.635Z,92920.56
2023-07-29T04:44:43.278Z,92917.53
2023-07-29T04:46:15.132Z,92918.47
2023-07-29T04:47:47.322Z,92919.72
2023-07-29T04:49:19.877Z,92922.03
2023-07-29T04:50:51.645Z,92924.28
2023-07-29T04:52:23.295Z,92921.31
2023-07-29T04:53:55.013Z,92924.03
2023-07-29T04:55:26.910Z,92920.44
2023-07-29T04:56:58.818Z,92921.81
2023-07-29T04:58:31.502Z,92927.81
2023-07-29T05:00:04.245Z,92925.19
2023-07-29T05:01:36.000Z,92929.50
2023-07-29T05:03:08.013Z,92933.88
2023-07-29T05:04:39.811Z,92926.69
2023-07-29T05:06:12.028Z,92931.34
2023-07-29T05:07:44.015Z,92929.19
2023-07-29T05:09:19.694Z,92929.75
2023-07-29T05:10:52.031Z,92928.03
2023-07-29T05:12:24.230Z,92932.19
2023-07-29T05:13:55.852Z,92936.22
2023-07-29T05:15:28.613Z,92928.88
2023-07-29T05:17:00.661Z,92933.78
2023-07-29T05:18:32.253Z,92931.22
2023-07-29T05:20:04.547Z,92935.72
2023-07-29T05:21:36.443Z,92947.28
2023-07-29T05:23:08.074Z,92941.94
2023-07-29T05:24:40.150Z,92938.59
2023-07-29T05:26:12.602Z,92942.66
2023-07-29T05:27:44.560Z,92944.69
2023-07-29T05:29:16.353Z,92945.97
2023-07-29T05:30:48.579Z,92942.66
2023-07-29T05:32:20.225Z,92943.00
2023-07-29T05:33:52.227Z,92942.28
2023-07-29T05:35:25.220Z,92951.03
2023-07-29T05:36:56.902Z,92944.34
2023-07-29T05:38:28.733Z,92946.41
2023-07-29T05:40:00.871Z,92945.47
2023-07-29T05:41:32.570Z,92945.09
2023-07-29T05:43:04.417Z,92952.50
2023-07-29T05:44:36.163Z,92945.50
2023-07-29T05:46:07.872Z,92955.78
2023-07-29T05:47:39.600Z,92951.94
2023-07-29T05:49:11.262Z,92959.88
2023-07-29T05:50:43.255Z,92956.94
2023-07-29T05:52:14.877Z,92957.44
2023-07-29T05:53:46.763Z,92961.94
2023-07-29T05:55:18.321Z,92959.63
2023-07-29T05:56:50.884Z,92960.84
2023-07-29T05:58:22.637Z,92964.16
2023-07-29T05:59:54.956Z,92958.44
2023-07-29T06:01:27.672Z,92956.59
2023-07-29T06:02:59.557Z,92959.06
2023-07-29T06:04:31.513Z,92958.38
2023-07-29T06:06:03.883Z,92949.06
2023-07-29T06:07:35.829Z,92948.72
2023-07-29T06:09:07.594Z,92958.19
2023-07-29T06:10:39.433Z,92952.75
2023-07-29T06:12:11.183Z,92952.00
2023-07-29T06:13:42.823Z,92948.53
2023-07-29T06:15:14.995Z,92950.47
2023-07-29T06:16:47.119Z,92950.09
2023-07-29T06:18:18.858Z,92948.13
2023-07-29T06:19:50.681Z,92950.09
2023-07-29T06:21:22.848Z,92941.84
2023-07-29T06:22:55.078Z,92943.03
2023-07-29T06:24:26.774Z,92943.81
2023-07-29T06:25:58.344Z,92937.91
2023-07-29T06:27:31.095Z,92935.97
2023-07-29T06:29:03.107Z,92934.78
2023-07-29T06:30:35.109Z,92936.75
2023-07-29T06:32:07.267Z,92937.13
2023-07-29T06:33:41.386Z,92930.84
2023-07-29T06:35:13.681Z,92934.00
2023-07-29T06:36:45.995Z,92932.03
2023-07-29T06:38:22.630Z,92927.72
2023-07-29T06:39:54.433Z,92935.53
2023-07-29T06:41:26.826Z,92930.06
2023-07-29T06:42:59.061Z,92932.03
2023-07-29T06:44:31.054Z,92932.81
2023-07-29T06:46:03.015Z,92936.75
2023-07-29T06:47:35.023Z,92929.66
2023-07-29T06:49:07.362Z,92933.13
2023-07-29T06:50:39.059Z,92935.41
2023-07-29T06:52:10.688Z,92932.19
2023-07-29T06:53:42.637Z,92934.00
2023-07-29T06:55:14.287Z,92940.56
2023-07-29T06:56:45.910Z,92944.47
2023-07-29T06:58:17.749Z,92946.78
2023-07-29T06:59:49.938Z,92947.41
2023-07-29T07:01:21.749Z,92945.00
2023-07-29T07:02:54.132Z,92941.66
2023-07-29T07:04:26.177Z,92947.03
2023-07-29T07:05:57.822Z,92935.31
2023-07-29T07:07:29.796Z,92941.47
2023-07-29T07:09:01.596Z,92930.66
2023-07-29T07:10:35.029Z,92932.91
2023-07-29T07:12:06.806Z,92925.44
2023-07-29T07:13:38.468Z,92925.06
2023-07-29T07:15:10.326Z,92918.16
2023-07-29T07:16:42.163Z,92913.63
2023-07-29T07:18:13.883Z,92926.16
2023-07-29T07:19:45.628Z,92921.13
2023-07-29T07:21:17.677Z,92917.03
2023-07-29T07:22:49.895Z,92907.06
2023-07-29T07:24:21.674Z,92913.59
2023-07-29T07:25:53.402Z,92915.75
2023-07-29T07:27:25.603Z,92913.13
2023-07-29T07:28:58.111Z,92917.22
2023-07-29T07:30:30.675Z,92916.31
2023-07-29T07:32:02.427Z,92916.50
2023-07-29T07:33:34.785Z,92921.81
2023-07-29T07:35:07.275Z,92915.34
2023-07-29T07:36:39.982Z,92913.31
2023-07-29T07:38:13.630Z,92905.47
2023-07-29T07:39:45.513Z,92912.38
2023-07-29T07:41:17.591Z,92910.19
2023-07-29T07:42:49.587Z,92905.72
2023-07-29T07:44:22.045Z,92908.31
2023-07-29T07:45:58.828Z,92903.03
2023-07-29T07:47:31.341Z,92900.84
2023-07-29T07:49:03.902Z,92895.84
2023-07-29T07:50:35.981Z,92902.63
2023-07-29T07:52:07.773Z,92898.41
2023-07-29T07:53:40.174Z,92901.72
2023-07-29T07:55:12.177Z,92901.44
2023-07-29T07:56:44.431Z,92905.19
2023-07-29T07:58:16.578Z,92895.94
2023-07-29T07:59:48.897Z,92906.00
2023-07-29T08:01:21.337Z,92908.34
2023-07-29T08:02:53.703Z,92899.41
2023-07-29T08:04:25.888Z,92908.25
2023-07-29T08:05:57.653Z,92902.28
2023-07-29T08:07:30.043Z,92904.09
2023-07-29T08:09:01.685Z,92899.41
2023-07-29T08:10:33.422Z,92899.25
2023-07-29T08:12:05.231Z,92897.16
2023-07-29T08:13:36.992Z,92903.75
2023-07-29T08:15:08.815Z,92901.63
2023-07-29T08:16:41.831Z,92903.63
2023-07-29T08:18:13.717Z,92911.13
2023-07-29T08:19:45.462Z,92911.31
2023-07-29T08:21:17.847Z,92910.00
2023-07-29T08:22:49.988Z,92909.84
2023-07-29T08:24:22.370Z,92901.59
2023-07-29T08:25:54.772Z,92910.34
2023-07-29T08:27:26.610Z,92918.41
2023-07-29T08:28:58.348Z,92910.97
2023-07-29T08:30:30.921Z,92911.06
2023-07-29T08:32:02.824Z,92915.19
2023-07-29T08:33:35.488Z,92900.25
2023-07-29T08:35:07.626Z,92913.28
2023-07-29T08:36:39.739Z,92906.66
2023-07-29T08:38:12.135Z,92911.34
2023-07-29T08:39:44.293Z,92913.09
2023-07-29T08:41:36.663Z,92912.88
2023-07-29T08:43:08.974Z,92909.38
2023-07-29T08:44:42.372Z,92903.22
2023-07-29T08:46:15.031Z,92908.50
2023-07-29T08:47:47.208Z,92912.94
2023-07-29T08:49:22.483Z,92906.09
2023-07-29T08:50:54.601Z,92906.16
2023-07-29T08:52:26.543Z,92901.59
2023-07-29T08:53:58.854Z,92896.25
2023-07-29T08:55:32.550Z,92895.16
2023-07-29T08:57:04.375Z,92896.16
2023-07-29T08:58:36.865Z,92891.25
2023-07-29T09:00:08.793Z,92894.06
2023-07-29T09:01:41.030Z,92886.09
2023-07-29T09:03:12.886Z,92884.72
2023-07-29T09:04:45.157Z,92886.63
2023-07-29T09:06:17.571Z,92878.03
2023-07-29T09:07:49.915Z,92883.78
2023-07-29T09:09:22.688Z,92876.44
2023-07-29T09:10:55.046Z,92878.06
2023-07-29T09:12:26.958Z,92887.47
2023-07-29T09:13:58.996Z,92882.94
2023-07-29T09:15:31.446Z,92882.66
2023-07-29T09:17:03.080Z,92877.28
2023-07-29T09:18:34.889Z,92877.38
2023-07-29T09:20:07.015Z,92876.38
2023-07-29T09:21:42.204Z,92871.34
2023-07-29T09:23:14.029Z,92874.41
2023-07-29T09:24:46.706Z,92871.25
2023-07-29T09:26:25.917Z,92877.81
2023-07-29T09:27:59.913Z,92878.69
2023-07-29T09:29:33.246Z,92871.69
2023-07-29T09:31:04.944Z,92874.03
2023-07-29T09:32:37.232Z,92871.00
2023-07-29T09:34:10.361Z,92866.00
2023-07-29T09:35:41.980Z,92862.78
2023-07-29T09:37:17.077Z,92867.09
2023-07-29T09:38:48.976Z,92863.72
2023-07-29T09:40:21.341Z,92858.50
2023-07-29T09:41:54.561Z,92859.06
2023-07-29T09:43:26.950Z,92863.88
2023-07-29T09:44:58.702Z,92858.34
2023-07-29T09:46:34.269Z,92859.19
2023-07-29T09:48:11.322Z,92859.50
2023-07-29T09:49:44.238Z,92863.97
2023-07-29T09:51:16.616Z,92848.13
2023-07-29T09:52:50.181Z,92854.81
2023-07-29T09:54:22.573Z,92856.66
2023-07-29T09:55:54.880Z,92856.41
2023-07-29T09:57:27.345Z,92850.06
2023-07-29T09:58:59.494Z,92853.81
2023-07-29T10:00:32.126Z,92849.47
2023-07-29T10:02:04.211Z,92843.47
2023-07-29T10:03:37.035Z,92845.38
2023-07-29T10:05:09.397Z,92847.13
2023-07-29T10:06:41.987Z,92843.16
2023-07-29T10:08:13.919Z,92844.13
2023-07-29T10:09:46.426Z,92836.22
2023-07-29T10:11:19.605Z,92831.84
2023-07-29T10:12:51.452Z,92839.03
2023-07-29T10:14:23.190Z,92834.75
2023-07-29T10:15:55.438Z,92830.31
2023-07-29T10:17:27.703Z,92841.59
2023-07-29T10:18:59.921Z,92833.56
2023-07-29T10:20:32.370Z,92829.63
2023-07-29T10:22:04.257Z,92829.03
2023-07-29T10:23:40.301Z,92830.59
2023-07-29T10:25:15.210Z,92836.66
2023-07-29T10:26:48.200Z,92823.41
2023-07-29T10:28:20.460Z,92820.84
2023-07-29T10:29:52.503Z,92821.44
2023-07-29T10:31:24.737Z,92826.16
2023-07-29T10:32:57.028Z,92823.88
2023-07-29T10:34:29.745Z,92810.88
2023-07-29T10:36:01.478Z,92825.19
2023-07-29T10:37:33.178Z,92818.13
2023-07-29T10:39:05.296Z,92820.69
2023-07-29T10:40:46.936Z,92806.34
2023-07-29T10:42:18.685Z,92817.16
2023-07-29T10:43:50.508Z,92815.78
2023-07-29T10:45:23.422Z,92813.53
2023-07-29T10:46:55.640Z,92811.31
2023-07-29T10:48:36.909Z,92808.91
2023-07-29T10:50:16.543Z,92803.09
2023-07-29T10:51:51.504Z,92803.03
2023-07-29T10:53:31.562Z,92804.44
2023-07-29T10:55:05.289Z,92805.06
2023-07-29T10:56:38.382Z,92801.19
2023-07-29T10:58:14.061Z,92797.41
2023-07-29T10:59:57.324Z,92796.69
2023-07-29T11:01:30.128Z,92797.72
2023-07-29T11:03:03.196Z,92786.94
2023-07-29T11:04:39.738Z,92792.81
2023-07-29T11:06:11.851Z,92790.94
2023-07-29T11:07:47.128Z,92793.94
2023-07-29T11:09:37.880Z,92795.03
2023-07-29T11:11:09.856Z,92791.13
2023-07-29T11:12:48.980Z,92798.16
2023-07-29T11:14:21.672Z,92786.53
2023-07-29T11:15:54.851Z,92789.09
2023-07-29T11:17:27.054Z,92789.53
2023-07-29T11:18:59.558Z,92781.84
2023-07-29T11:20:32.605Z,92784.13
2023-07-29T11:22:04.461Z,92784.13
2023-07-29T11:23:37.222Z,92789.19
2023-07-29T11:25:09.734Z,92788.59
2023-07-29T11:26:47.625Z,92791.25
2023-07-29T11:28:20.029Z,92783.16
2023-07-29T11:29:52.222Z,92786.50
2023-07-29T11:31:24.635Z,92782.28
2023-07-29T11:32:57.116Z,92783.09
2023-07-29T11:34:34.898Z,92783.16
2023-07-29T11:36:06.777Z,92778.06
2023-07-29T11:37:39.107Z,92778.84
2023-07-29T11:39:12.961Z,92775.09
2023-07-29T11:40:45.461Z,92773.25
2023-07-29T11:42:17.647Z,92774.19
2023-07-29T11:43:49.704Z,92778.22
2023-07-29T11:45:38.629Z,92772.16
2023-07-29T11:47:19.094Z,92766.00
2023-07-29T11:48:51.206Z,92766.41
2023-07-29T11:50:23.487Z,92752.41
2023-07-29T11:51:55.321Z,92755.03
2023-07-29T11:53:28.331Z,92761.38
2023-07-29T11:55:00.204Z,92766.06
2023-07-29T11:56:33.172Z,92758.72
2023-07-29T11:58:04.994Z,92766.91
2023-07-29T11:59:37.108Z,92765.94
2023-07-29T12:01:09.512Z,92757.47
2023-07-29T12:02:42.109Z,92753.50
2023-07-29T12:04:14.424Z,92753.66
2023-07-29T12:05:47.586Z,92755.03
2023-07-29T12:07:21.770Z,92754.88
2023-07-29T12:08:54.391Z,92741.69
2023-07-29T12:10:27.882Z,92746.88
2023-07-29T12:11:59.896Z,92742.97
2023-07-29T12:13:32.287Z,92743.31
2023-07-29T12:15:04.195Z,92739.28
2023-07-29T12:16:45.834Z,92742.53
2023-07-29T12:18:17.906Z,92737.50
2023-07-29T12:19:50.321Z,92742.00
2023-07-29T12:21:22.497Z,92740.28
2023-07-29T12:22:59.124Z,92744.31
2023-07-29T12:24:32.070Z,92736.59
2023-07-29T12:26:04.164Z,92745.47
2023-07-29T12:27:36.298Z,92739.56
2023-07-29T12:29:14.693Z,92743.44
2023-07-29T12:30:47.041Z,92740.66
2023-07-29T12:32:19.278Z,92740.00
2023-07-29T12:33:52.240Z,92738.94
2023-07-29T12:35:24.332Z,92744.03
2023-07-29T12:36:57.444Z,92743.53
2023-07-29T12:38:30.128Z,92739.78
2023-07-29T12:40:02.066Z,92727.66
2023-07-29T12:41:34.177Z,92736.22
2023-07-29T12:43:06.053Z,92720.84
2023-07-29T12:44:39.032Z,92731.88
2023-07-29T12:46:10.710Z,92735.97
2023-07-29T12:47:42.560Z,92743.66
2023-07-29T12:49:14.618Z,92737.94
2023-07-29T12:50:46.511Z,92739.91
2023-07-29T12:52:18.255Z,92732.69
2023-07-29T12:53:49.949Z,92726.22
2023-07-29T12:55:23.614Z,92728.28
2023-07-29T12:56:56.309Z,92729.16
2023-07-29T12:58:27.973Z,92734.22
2023-07-29T13:00:00.137Z,92735.03
2023-07-29T13:01:32.277Z,92736.59
2023-07-29T13:03:07.382Z,92734.16
2023-07-29T13:04:39.310Z,92735.44
2023-07-29T13:06:11.569Z,92736.78
2023-07-29T13:07:44.053Z,92736.69
2023-07-29T13:09:15.709Z,92739.38
2023-07-29T13:10:47.340Z,92739.13
2023-07-29T13:12:19.021Z,92730.00
2023-07-29T13:13:50.793Z,92725.69
2023-07-29T13:15:22.745Z,92734.19
2023-07-29T13:16:54.644Z,92727.16
2023-07-29T13:18:27.125Z,92729.47
2023-07-29T13:19:58.989Z,92726.19
2023-07-29T13:21:31.025Z,92733.44
2023-07-29T13:23:03.214Z,92725.00
2023-07-29T13:24:36.221Z,92728.41
2023-07-29T13:26:07.912Z,92726.66
2023-07-29T13:27:39.804Z,92731.28
2023-07-29T13:29:11.925Z,92723.84
2023-07-29T13:30:44.099Z,92718.81
2023-07-29T13:32:15.703Z,92725.94
2023-07-29T13:33:47.412Z,92718.41
2023-07-29T13:35:19.421Z,92719.13
2023-07-29T13:36:51.059Z,92715.22
2023-07-29T13:38:22.739Z,92713.75
2023-07-29T13:39:54.623Z,92708.72
2023-07-29T13:41:26.469Z,92713.31
2023-07-29T13:42:58.344Z,92710.00
2023-07-29T13:44:29.973Z,92706.13
2023-07-29T13:46:01.657Z,92717.78
2023-07-29T13:47:33.323Z,92706.53
2023-07-29T13:49:05.132Z,92705.69
2023-07-29T13:50:36.969Z,92712.59
2023-07-29T13:52:08.869Z,92712.84
2023-07-29T13:53:40.701Z,92715.19
2023-07-29T13:55:13.717Z,92707.63
2023-07-29T13:56:45.524Z,92705.31
2023-07-29T13:58:17.329Z,92705.50
2023-07-29T13:59:49.425Z,92713.91
2023-07-29T14:01:21.469Z,92709.34
2023-07-29T14:02:53.294Z,92708.25
2023-07-29T14:04:24.961Z,92711.53
2023-07-29T14:05:56.612Z,92698.38
2023-07-29T14:07:28.368Z,92711.78
2023-07-29T14:09:12.188Z,92704.47
2023-07-29T14:10:44.393Z,92707.75
2023-07-29T14:12:16.963Z,92703.72
2023-07-29T14:13:48.653Z,92699.38
2023-07-29T14:15:20.989Z,92711.94
2023-07-29T14:16:53.034Z,92702.19
2023-07-29T14:18:25.110Z,92698.88
2023-07-29T14:19:56.801Z,92705.09
2023-07-29T14:21:28.465Z,92698.44
2023-07-29T14:23:00.483Z,92700.13
2023-07-29T14:24:32.114Z,92699.03
2023-07-29T14:26:03.717Z,92694.84
2023-07-29T14:27:35.353Z,92695.31
2023-07-29T14:29:07.427Z,92694.53
2023-07-29T14:30:40.177Z,92697.47
2023-07-29T14:32:11.890Z,92692.19
2023-07-29T14:33:43.754Z,92692.97
2023-07-29T14:35:15.486Z,92689.72
2023-07-29T14:36:53.092Z,92692.84
2023-07-29T14:38:24.641Z,92689.09
2023-07-29T14:39:56.357Z,92688.41
2023-07-29T14:41:28.233Z,92692.44
2023-07-29T14:42:59.954Z,92692.09
2023-07-29T14:44:31.688Z,92697.97
2023-07-29T14:46:03.665Z,92693.16
2023-07-29T14:47:36.353Z,92694.53
2023-07-29T14:49:08.237Z,92695.56
2023-07-29T14:50:40.291Z,92697.25
2023-07-29T14:52:12.471Z,92700.97
2023-07-29T14:53:44.879Z,92693.84
2023-07-29T14:55:17.254Z,92695.06
2023-07-29T14:56:49.492Z,92698.47
2023-07-29T14:58:21.351Z,92693.47
2023-07-29T14:59:53.320Z,92697.19
2023-07-29T15:01:25.036Z,92693.91
2023-07-29T15:02:57.070Z,92693.41
2023-07-29T15:04:28.742Z,92701.13
2023-07-29T15:06:02.023Z,92693.53
2023-07-29T15:07:34.038Z,92692.63
2023-07-29T15:09:06.713Z,92692.16
2023-07-29T15:10:38.375Z,92690.00
2023-07-29T15:12:10.198Z,92695.91
2023-07-29T15:13:42.292Z,92697.63
2023-07-29T15:15:14.491Z,92694.06
2023-07-29T15:16:46.341Z,92693.56
2023-07-29T15:18:18.597Z,92695.56
2023-07-29T15:19:51.636Z,92696.97
2023-07-29T15:21:23.362Z,92692.25
2023-07-29T15:22:54.998Z,92695.59
2023-07-29T15:24:26.839Z,92692.97
2023-07-29T15:25:58.551Z,92694.44
2023-07-29T15:27:30.189Z,92690.13
2023-07-29T15:29:03.268Z,92692.59
2023-07-29T15:30:36.997Z,92688.69
2023-07-29T15:32:08.904Z,92690.69
2023-07-29T15:33:40.744Z,92684.81
2023-07-29T15:35:12.934Z,92683.25
2023-07-29T15:36:44.646Z,92693.28
2023-07-29T15:38:16.613Z,92689.75
2023-07-29T15:39:48.495Z,92691.88
2023-07-29T15:41:20.180Z,92691.44
2023-07-29T15:42:53.389Z,92693.75
2023-07-29T15:44:25.270Z,92697.94
2023-07-29T15:45:58.631Z,92693.03
2023-07-29T15:47:32.368Z,92695.38
2023-07-29T15:49:04.502Z,92691.94
2023-07-29T15:50:36.427Z,92696.72
2023-07-29T15:52:12.304Z,92699.38
2023-07-29T15:53:45.130Z,92702.50
2023-07-29T15:55:16.888Z,92701.28
2023-07-29T15:56:48.991Z,92703.72
2023-07-29T15:58:21.050Z,92702.28
2023-07-29T15:59:53.274Z,92702.91
2023-07-29T16:01:25.062Z,92703.03
2023-07-29T16:02:57.392Z,92698.63
2023-07-29T16:04:29.320Z,92698.19
2023-07-29T16:06:02.799Z,92698.44
2023-07-29T16:07:34.946Z,92698.13
2023-07-29T16:09:07.837Z,92702.91
2023-07-29T16:10:39.820Z,92703.69
2023-07-29T16:12:14.250Z,92706.47
2023-07-29T16:13:46.039Z,92710.94
2023-07-29T16:15:17.640Z,92715.78
2023-07-29T16:16:49.500Z,92714.59
2023-07-29T16:18:21.394Z,92710.94
2023-07-29T16:19:59.345Z,92719.38
2023-07-29T16:21:31.257Z,92715.41
2023-07-29T16:23:02.822Z,92717.03
2023-07-29T16:24:34.763Z,92711.91
2023-07-29T16:26:06.928Z,92719.28
2023-07-29T16:27:40.827Z,92711.06
2023-07-29T16:29:12.498Z,92715.53
2023-07-29T16:30:45.751Z,92720.31
2023-07-29T16:32:18.407Z,92719.75
2023-07-29T16:33:51.357Z,92718.78
2023-07-29T16:35:23.123Z,92720.00
2023-07-29T16:36:54.960Z,92724.00
2023-07-29T16:38:27.971Z,92724.34
2023-07-29T16:40:00.478Z,92729.34
2023-07-29T16:42:03.569Z,92729.19
2023-07-29T16:43:23.665Z,92725.97
2023-07-29T16:44:55.373Z,92725.53
2023-07-29T16:46:27.263Z,92727.66
2023-07-29T16:47:59.209Z,92732.28
2023-07-29T16:50:00.646Z,92740.63
2023-07-29T16:51:38.024Z,92738.88
2023-07-29T16:53:09.765Z,92746.25
2023-07-29T16:54:41.683Z,92741.97
2023-07-29T16:56:13.365Z,92740.16
2023-07-29T16:57:45.036Z,92740.22
2023-07-29T16:59:16.721Z,92739.53
2023-07-29T17:00:48.489Z,92746.31
2023-07-29T17:02:20.620Z,92754.31
2023-07-29T17:03:52.565Z,92753.97
2023-07-29T17:05:24.265Z,92754.38
2023-07-29T17:06:56.150Z,92757.25
2023-07-29T17:08:27.894Z,92749.47
2023-07-29T17:09:59.640Z,92751.63
2023-07-29T17:11:31.776Z,92752.69
2023-07-29T17:13:04.127Z,92753.34
2023-07-29T17:14:36.344Z,92757.44
2023-07-29T17:16:10.073Z,92757.78
2023-07-29T17:17:42.161Z,92763.16
2023-07-29T17:19:14.482Z,92758.72
2023-07-29T17:20:46.702Z,92749.44
2023-07-29T17:22:18.681Z,92750.44
2023-07-29T17:23:50.462Z,92749.53
2023-07-29T17:25:24.961Z,92754.09
2023-07-29T17:26:57.344Z,92743.59
2023-07-29T17:28:29.943Z,92753.66
2023-07-29T17:30:02.127Z,92751.47
2023-07-29T17:31:35.210Z,92750.03
2023-07-29T17:33:07.480Z,92753.03
2023-07-29T17:34:39.278Z,92747.63
2023-07-29T17:36:11.158Z,92751.38
2023-07-29T17:37:45.681Z,92751.53
2023-07-29T17:39:17.512Z,92749.22
2023-07-29T17:40:49.601Z,92755.69
2023-07-29T17:42:21.534Z,92754.59
2023-07-29T17:43:53.748Z,92760.59
2023-07-29T17:45:25.610Z,92764.63
2023-07-29T17:46:58.144Z,92759.16
2023-07-29T17:48:31.192Z,92760.00
2023-07-29T17:50:03.902Z,92767.22
2023-07-29T17:51:36.668Z,92759.03
2023-07-29T17:53:08.708Z,92762.63
2023-07-29T17:54:41.343Z,92766.25
2023-07-29T17:56:13.466Z,92766.31
2023-07-29T17:57:46.080Z,92763.97
2023-07-29T17:59:18.329Z,92763.25
2023-07-29T18:00:51.250Z,92768.84
2023-07-29T18:02:23.444Z,92761.38
2023-07-29T18:03:55.368Z,92763.00
2023-07-29T18:05:27.284Z,92764.22
2023-07-29T18:06:59.157Z,92770.16
2023-07-29T18:08:34.019Z,92762.72